sensor_id;sensor_type;location;lat;lon;timestamp;temperature;humidity
55008;DHT22;40902;45.116;21.296;2024-01-30T00:01:42;77.10;2227.20
55008;DHT22;40902;45.116;21.296;2024-01-30T00:04:07;77.20;2227.20
55008;DHT22;40902;45.116;21.296;2024-01-30T00:06:33;77.30;2227.20
55008;DHT22;40902;45.116;21.296;2024-01-30T00:08:59;77.30;2227.20
55008;DHT22;40902;45.116;21.296;2024-01-30T00:11:25;77.40;2227.20
55008;DHT22;40902;45.116;21.296;2024-01-30T00:13:51;77.50;2227.20
55008;DHT22;40902;45.116;21.296;2024-01-30T00:16:21;77.50;2227.20
55008;DHT22;40902;45.116;21.296;2024-01-30T00:18:48;77.60;2227.20
55008;DHT22;40902;45.116;21.296;2024-01-30T00:21:14;77.70;2227.20
55008;DHT22;40902;45.116;21.296;2024-01-30T00:23:40;77.70;2227.20
55008;DHT22;40902;45.116;21.296;2024-01-30T00:26:06;77.70;2227.20
55008;DHT22;40902;45.116;21.296;2024-01-30T00:28:32;77.70;2227.20
55008;DHT22;40902;45.116;21.296;2024-01-30T00:30:58;77.70;2227.20
55008;DHT22;40902;45.116;21.296;2024-01-30T00:33:23;77.70;2227.20
55008;DHT22;40902;45.116;21.296;2024-01-30T00:35:49;77.70;2227.20
55008;DHT22;40902;45.116;21.296;2024-01-30T00:38:15;102.40;2227.20
55008;DHT22;40902;45.116;21.296;2024-01-30T00:40:41;102.40;2227.20
55008;DHT22;40902;45.116;21.296;2024-01-30T00:43:06;102.50;2227.20
55008;DHT22;40902;45.116;21.296;2024-01-30T00:45:32;102.50;2227.20
55008;DHT22;40902;45.116;21.296;2024-01-30T00:47:58;102.50;2227.20
55008;DHT22;40902;45.116;21.296;2024-01-30T00:50:24;102.50;2227.20
55008;DHT22;40902;45.116;21.296;2024-01-30T00:52:49;102.50;2227.20
55008;DHT22;40902;45.116;21.296;2024-01-30T00:55:15;102.50;2227.20
55008;DHT22;40902;45.116;21.296;2024-01-30T00:57:41;102.50;2227.20
55008;DHT22;40902;45.116;21.296;2024-01-30T01:00:07;102.50;2227.20
55008;DHT22;40902;45.116;21.296;2024-01-30T01:02:35;102.50;2227.20
55008;DHT22;40902;45.116;21.296;2024-01-30T01:05:01;102.50;2227.20
55008;DHT22;40902;45.116;21.296;2024-01-30T01:07:27;102.50;2227.20
55008;DHT22;40902;45.116;21.296;2024-01-30T01:09:52;102.50;2227.20
55008;DHT22;40902;45.116;21.296;2024-01-30T01:12:18;102.50;2227.20
55008;DHT22;40902;45.116;21.296;2024-01-30T01:14:44;102.50;2227.20
55008;DHT22;40902;45.116;21.296;2024-01-30T01:17:10;102.50;2227.20
55008;DHT22;40902;45.116;21.296;2024-01-30T01:19:36;102.50;2227.20
55008;DHT22;40902;45.116;21.296;2024-01-30T01:22:01;102.50;2227.20
55008;DHT22;40902;45.116;21.296;2024-01-30T01:24:30;102.50;2227.20
55008;DHT22;40902;45.116;21.296;2024-01-30T01:26:56;102.50;2227.20
55008;DHT22;40902;45.116;21.296;2024-01-30T01:29:22;102.50;2227.20
55008;DHT22;40902;45.116;21.296;2024-01-30T01:31:57;102.50;2227.20
55008;DHT22;40902;45.116;21.296;2024-01-30T01:34:23;102.50;2227.20
55008;DHT22;40902;45.116;21.296;2024-01-30T01:36:50;102.50;2227.20
55008;DHT22;40902;45.116;21.296;2024-01-30T01:39:16;102.50;2227.20
55008;DHT22;40902;45.116;21.296;2024-01-30T01:41:41;102.50;2227.20
55008;DHT22;40902;45.116;21.296;2024-01-30T01:44:08;102.50;2227.20
55008;DHT22;40902;45.116;21.296;2024-01-30T01:46:34;102.50;2227.20
55008;DHT22;40902;45.116;21.296;2024-01-30T01:49:02;102.50;2227.20
55008;DHT22;40902;45.116;21.296;2024-01-30T01:51:30;102.50;2227.20
55008;DHT22;40902;45.116;21.296;2024-01-30T01:53:57;102.60;2227.20
55008;DHT22;40902;45.116;21.296;2024-01-30T01:56:24;102.50;2227.20
55008;DHT22;40902;45.116;21.296;2024-01-30T01:58:51;102.60;2227.20
55008;DHT22;40902;45.116;21.296;2024-01-30T02:01:21;102.50;2227.20
55008;DHT22;40902;45.116;21.296;2024-01-30T02:03:47;102.60;2227.20
55008;DHT22;40902;45.116;21.296;2024-01-30T02:06:14;102.50;2227.20
55008;DHT22;40902;45.116;21.296;2024-01-30T02:08:41;102.50;2227.20
55008;DHT22;40902;45.116;21.296;2024-01-30T02:11:07;102.40;2227.20
55008;DHT22;40902;45.116;21.296;2024-01-30T02:13:33;102.40;2227.20
55008;DHT22;40902;45.116;21.296;2024-01-30T02:16:00;102.40;2227.20
55008;DHT22;40902;45.116;21.296;2024-01-30T02:18:26;77.70;2227.20
55008;DHT22;40902;45.116;21.296;2024-01-30T02:20:54;77.70;2227.20
55008;DHT22;40902;45.116;21.296;2024-01-30T02:23:23;77.70;2227.20
55008;DHT22;40902;45.116;21.296;2024-01-30T02:25:50;77.70;2227.20
55008;DHT22;40902;45.116;21.296;2024-01-30T02:28:18;77.60;2227.20
55008;DHT22;40902;45.116;21.296;2024-01-30T02:30:45;77.70;2227.20
55008;DHT22;40902;45.116;21.296;2024-01-30T02:33:14;77.60;2227.20
55008;DHT22;40902;45.116;21.296;2024-01-30T02:35:40;77.60;2227.20
55008;DHT22;40902;45.116;21.296;2024-01-30T02:38:06;77.60;2227.20
55008;DHT22;40902;45.116;21.296;2024-01-30T02:40:32;77.60;2227.20
55008;DHT22;40902;45.116;21.296;2024-01-30T02:42:59;77.60;2227.20
55008;DHT22;40902;45.116;21.296;2024-01-30T02:45:25;77.60;2227.20
55008;DHT22;40902;45.116;21.296;2024-01-30T02:47:51;77.60;2227.20
55008;DHT22;40902;45.116;21.296;2024-01-30T02:50:17;77.60;2227.20
55008;DHT22;40902;45.116;21.296;2024-01-30T02:52:43;77.60;2227.20
55008;DHT22;40902;45.116;21.296;2024-01-30T02:55:11;77.60;2227.20
55008;DHT22;40902;45.116;21.296;2024-01-30T02:57:38;77.60;2227.20
55008;DHT22;40902;45.116;21.296;2024-01-30T03:00:04;77.60;2227.20
55008;DHT22;40902;45.116;21.296;2024-01-30T03:02:32;77.60;2227.20
55008;DHT22;40902;45.116;21.296;2024-01-30T03:04:59;77.60;2227.20
55008;DHT22;40902;45.116;21.296;2024-01-30T03:07:24;77.60;2227.20
55008;DHT22;40902;45.116;21.296;2024-01-30T03:09:50;77.50;2227.20
55008;DHT22;40902;45.116;21.296;2024-01-30T03:12:16;77.50;2227.20
55008;DHT22;40902;45.116;21.296;2024-01-30T03:14:42;77.50;2227.20
55008;DHT22;40902;45.116;21.296;2024-01-30T03:17:07;77.50;2227.20
55008;DHT22;40902;45.116;21.296;2024-01-30T03:19:33;77.60;2227.20
55008;DHT22;40902;45.116;21.296;2024-01-30T03:21:59;77.50;2227.20
55008;DHT22;40902;45.116;21.296;2024-01-30T03:24:25;77.50;2227.20
55008;DHT22;40902;45.116;21.296;2024-01-30T03:26:51;77.50;2227.20
55008;DHT22;40902;45.116;21.296;2024-01-30T03:29:17;77.50;2227.20
55008;DHT22;40902;45.116;21.296;2024-01-30T03:31:42;77.60;2227.20
55008;DHT22;40902;45.116;21.296;2024-01-30T03:34:08;77.50;2227.20
55008;DHT22;40902;45.116;21.296;2024-01-30T03:36:34;77.50;2227.20
55008;DHT22;40902;45.116;21.296;2024-01-30T03:39:00;77.50;2227.20
55008;DHT22;40902;45.116;21.296;2024-01-30T03:41:26;77.50;2227.20
55008;DHT22;40902;45.116;21.296;2024-01-30T03:43:52;77.50;2227.20
55008;DHT22;40902;45.116;21.296;2024-01-30T03:46:18;77.60;2227.20
55008;DHT22;40902;45.116;21.296;2024-01-30T03:48:45;77.60;2227.20
55008;DHT22;40902;45.116;21.296;2024-01-30T03:51:11;77.60;2227.20
55008;DHT22;40902;45.116;21.296;2024-01-30T03:53:40;77.60;2227.20
55008;DHT22;40902;45.116;21.296;2024-01-30T03:56:07;77.70;2227.20
55008;DHT22;40902;45.116;21.296;2024-01-30T03:58:33;77.70;2227.20
55008;DHT22;40902;45.116;21.296;2024-01-30T04:00:58;102.40;2227.20
55008;DHT22;40902;45.116;21.296;2024-01-30T04:03:24;77.70;2227.20
55008;DHT22;40902;45.116;21.296;2024-01-30T04:05:52;77.70;2227.20
55008;DHT22;40902;45.116;21.296;2024-01-30T04:08:18;77.70;2227.20
55008;DHT22;40902;45.116;21.296;2024-01-30T04:10:44;77.70;2227.20
55008;DHT22;40902;45.116;21.296;2024-01-30T04:13:10;102.40;2227.20
55008;DHT22;40902;45.116;21.296;2024-01-30T04:15:35;77.70;2227.20
55008;DHT22;40902;45.116;21.296;2024-01-30T04:18:01;102.40;2227.20
55008;DHT22;40902;45.116;21.296;2024-01-30T04:20:27;77.70;2227.20
55008;DHT22;40902;45.116;21.296;2024-01-30T04:22:53;102.40;2227.20
55008;DHT22;40902;45.116;21.296;2024-01-30T04:25:19;102.40;2227.20
55008;DHT22;40902;45.116;21.296;2024-01-30T04:27:44;102.40;2227.20
55008;DHT22;40902;45.116;21.296;2024-01-30T04:30:10;102.40;2227.20
55008;DHT22;40902;45.116;21.296;2024-01-30T04:32:37;102.40;2227.20
55008;DHT22;40902;45.116;21.296;2024-01-30T04:35:03;102.40;2227.20
55008;DHT22;40902;45.116;21.296;2024-01-30T04:37:29;102.40;2227.20
55008;DHT22;40902;45.116;21.296;2024-01-30T04:39:54;77.70;2227.20
55008;DHT22;40902;45.116;21.296;2024-01-30T04:42:20;102.40;2227.20
55008;DHT22;40902;45.116;21.296;2024-01-30T04:44:46;102.40;2227.20
55008;DHT22;40902;45.116;21.296;2024-01-30T04:47:12;102.40;2227.20
55008;DHT22;40902;45.116;21.296;2024-01-30T04:49:41;102.40;2227.20
55008;DHT22;40902;45.116;21.296;2024-01-30T04:52:08;102.40;2227.20
55008;DHT22;40902;45.116;21.296;2024-01-30T04:54:34;77.70;2227.20
55008;DHT22;40902;45.116;21.296;2024-01-30T04:57:01;77.70;2227.20
55008;DHT22;40902;45.116;21.296;2024-01-30T04:59:27;77.70;2227.20
55008;DHT22;40902;45.116;21.296;2024-01-30T05:01:53;77.70;2227.20
55008;DHT22;40902;45.116;21.296;2024-01-30T05:04:18;77.70;2227.20
55008;DHT22;40902;45.116;21.296;2024-01-30T05:06:44;77.70;2227.20
55008;DHT22;40902;45.116;21.296;2024-01-30T05:09:10;102.40;2227.20
55008;DHT22;40902;45.116;21.296;2024-01-30T05:11:40;102.40;2227.20
55008;DHT22;40902;45.116;21.296;2024-01-30T05:14:07;77.70;2227.20
55008;DHT22;40902;45.116;21.296;2024-01-30T05:16:34;77.70;2227.20
55008;DHT22;40902;45.116;21.296;2024-01-30T05:19:00;77.70;2227.20
55008;DHT22;40902;45.116;21.296;2024-01-30T05:21:26;77.70;2227.20
55008;DHT22;40902;45.116;21.296;2024-01-30T05:23:51;102.40;2227.20
55008;DHT22;40902;45.116;21.296;2024-01-30T05:26:17;102.40;2227.20
55008;DHT22;40902;45.116;21.296;2024-01-30T05:28:43;102.40;2227.20
55008;DHT22;40902;45.116;21.296;2024-01-30T05:31:12;102.40;2227.20
55008;DHT22;40902;45.116;21.296;2024-01-30T05:33:38;102.50;2227.20
55008;DHT22;40902;45.116;21.296;2024-01-30T05:36:04;102.60;2227.20
55008;DHT22;40902;45.116;21.296;2024-01-30T05:38:30;102.60;2227.20
55008;DHT22;40902;45.116;21.296;2024-01-30T05:40:56;102.80;2227.20
55008;DHT22;40902;45.116;21.296;2024-01-30T05:43:23;102.80;2227.20
55008;DHT22;40902;45.116;21.296;2024-01-30T05:45:49;103.00;2227.20
55008;DHT22;40902;45.116;21.296;2024-01-30T05:48:15;103.00;2227.20
55008;DHT22;40902;45.116;21.296;2024-01-30T05:50:41;103.10;2227.20
55008;DHT22;40902;45.116;21.296;2024-01-30T05:53:07;103.20;2227.20
55008;DHT22;40902;45.116;21.296;2024-01-30T05:55:33;103.20;2227.20
55008;DHT22;40902;45.116;21.296;2024-01-30T05:57:58;103.20;2227.20
55008;DHT22;40902;45.116;21.296;2024-01-30T06:00:24;103.30;2227.20
55008;DHT22;40902;45.116;21.296;2024-01-30T06:02:50;128.00;2252.80
55008;DHT22;40902;45.116;21.296;2024-01-30T06:05:15;128.10;2252.80
55008;DHT22;40902;45.116;21.296;2024-01-30T06:07:41;128.20;2252.80
55008;DHT22;40902;45.116;21.296;2024-01-30T06:10:07;128.20;2252.80
55008;DHT22;40902;45.116;21.296;2024-01-30T06:12:34;128.20;2252.80
55008;DHT22;40902;45.116;21.296;2024-01-30T06:15:01;128.30;2252.80
55008;DHT22;40902;45.116;21.296;2024-01-30T06:17:26;128.20;2252.80
55008;DHT22;40902;45.116;21.296;2024-01-30T06:19:52;128.20;2252.80
55008;DHT22;40902;45.116;21.296;2024-01-30T06:22:18;128.30;2252.80
55008;DHT22;40902;45.116;21.296;2024-01-30T06:24:44;128.30;2252.80
55008;DHT22;40902;45.116;21.296;2024-01-30T06:27:16;128.30;2252.80
55008;DHT22;40902;45.116;21.296;2024-01-30T06:29:43;128.40;2252.80
55008;DHT22;40902;45.116;21.296;2024-01-30T06:32:08;128.40;2252.80
55008;DHT22;40902;45.116;21.296;2024-01-30T06:34:34;128.50;2252.80
55008;DHT22;40902;45.116;21.296;2024-01-30T06:37:00;128.50;2252.80
55008;DHT22;40902;45.116;21.296;2024-01-30T06:39:26;128.50;2252.80
55008;DHT22;40902;45.116;21.296;2024-01-30T06:41:52;128.50;2252.80
55008;DHT22;40902;45.116;21.296;2024-01-30T06:44:18;128.50;2252.80
55008;DHT22;40902;45.116;21.296;2024-01-30T06:46:44;128.50;2252.80
55008;DHT22;40902;45.116;21.296;2024-01-30T06:49:09;128.50;2252.80
55008;DHT22;40902;45.116;21.296;2024-01-30T06:51:35;128.50;2252.80
55008;DHT22;40902;45.116;21.296;2024-01-30T06:54:01;128.50;2252.80
55008;DHT22;40902;45.116;21.296;2024-01-30T06:56:28;128.50;2252.80
55008;DHT22;40902;45.116;21.296;2024-01-30T06:58:54;128.50;2252.80
55008;DHT22;40902;45.116;21.296;2024-01-30T07:01:19;128.50;2252.80
55008;DHT22;40902;45.116;21.296;2024-01-30T07:03:45;128.60;2252.80
55008;DHT22;40902;45.116;21.296;2024-01-30T07:06:11;128.60;2252.80
55008;DHT22;40902;45.116;21.296;2024-01-30T07:08:37;128.50;2252.80
55008;DHT22;40902;45.116;21.296;2024-01-30T07:11:05;128.60;2252.80
55008;DHT22;40902;45.116;21.296;2024-01-30T07:13:32;128.70;2252.80
55008;DHT22;40902;45.116;21.296;2024-01-30T07:15:57;128.70;2252.80
55008;DHT22;40902;45.116;21.296;2024-01-30T07:18:24;128.70;2252.80
55008;DHT22;40902;45.116;21.296;2024-01-30T07:20:49;128.70;2252.80
55008;DHT22;40902;45.116;21.296;2024-01-30T07:23:16;128.70;2252.80
55008;DHT22;40902;45.116;21.296;2024-01-30T07:25:46;128.80;2252.80
55008;DHT22;40902;45.116;21.296;2024-01-30T07:28:14;128.80;2252.80
55008;DHT22;40902;45.116;21.296;2024-01-30T07:30:43;128.80;2252.80
55008;DHT22;40902;45.116;21.296;2024-01-30T07:33:09;128.80;2252.80
55008;DHT22;40902;45.116;21.296;2024-01-30T07:35:35;128.80;2252.80
55008;DHT22;40902;45.116;21.296;2024-01-30T07:38:01;128.80;2252.80
55008;DHT22;40902;45.116;21.296;2024-01-30T07:40:27;128.80;2252.80
55008;DHT22;40902;45.116;21.296;2024-01-30T07:42:53;153.60;2252.80
55008;DHT22;40902;45.116;21.296;2024-01-30T07:45:20;153.70;2252.80
55008;DHT22;40902;45.116;21.296;2024-01-30T07:47:50;153.80;2252.80
55008;DHT22;40902;45.116;21.296;2024-01-30T07:50:16;153.90;2252.80
55008;DHT22;40902;45.116;21.296;2024-01-30T07:52:42;154.00;2252.80
55008;DHT22;40902;45.116;21.296;2024-01-30T07:55:08;154.10;2252.80
55008;DHT22;40902;45.116;21.296;2024-01-30T07:57:34;154.30;2252.80
55008;DHT22;40902;45.116;21.296;2024-01-30T08:00:03;154.40;2252.80
55008;DHT22;40902;45.116;21.296;2024-01-30T08:02:29;154.50;2252.80
55008;DHT22;40902;45.116;21.296;2024-01-30T08:04:54;154.50;2252.80
55008;DHT22;40902;45.116;21.296;2024-01-30T08:07:20;179.20;2252.80
55008;DHT22;40902;45.116;21.296;2024-01-30T08:09:47;179.20;2252.80
55008;DHT22;40902;45.116;21.296;2024-01-30T08:12:13;179.20;2252.80
55008;DHT22;40902;45.116;21.296;2024-01-30T08:14:39;179.30;2252.80
55008;DHT22;40902;45.116;21.296;2024-01-30T08:17:07;179.30;2252.80
55008;DHT22;40902;45.116;21.296;2024-01-30T08:19:33;179.40;2252.80
55008;DHT22;40902;45.116;21.296;2024-01-30T08:21:59;179.30;2252.80
55008;DHT22;40902;45.116;21.296;2024-01-30T08:24:25;179.30;2252.80
55008;DHT22;40902;45.116;21.296;2024-01-30T08:26:50;179.40;2252.80
55008;DHT22;40902;45.116;21.296;2024-01-30T08:29:16;179.30;2252.80
55008;DHT22;40902;45.116;21.296;2024-01-30T08:31:42;179.30;2252.80
55008;DHT22;40902;45.116;21.296;2024-01-30T08:34:08;179.30;2252.80
55008;DHT22;40902;45.116;21.296;2024-01-30T08:36:34;179.20;2252.80
55008;DHT22;40902;45.116;21.296;2024-01-30T08:39:00;179.20;2252.80
55008;DHT22;40902;45.116;21.296;2024-01-30T08:41:26;179.20;2252.80
55008;DHT22;40902;45.116;21.296;2024-01-30T08:43:52;179.20;2252.80
55008;DHT22;40902;45.116;21.296;2024-01-30T08:46:20;179.20;2252.80
55008;DHT22;40902;45.116;21.296;2024-01-30T08:48:46;179.20;2252.80
55008;DHT22;40902;45.116;21.296;2024-01-30T08:51:13;179.30;2252.80
55008;DHT22;40902;45.116;21.296;2024-01-30T08:53:41;179.30;2252.80
55008;DHT22;40902;45.116;21.296;2024-01-30T08:56:06;179.30;2252.80
55008;DHT22;40902;45.116;21.296;2024-01-30T08:58:32;179.30;2252.80
55008;DHT22;40902;45.116;21.296;2024-01-30T09:00:59;179.40;2252.80
55008;DHT22;40902;45.116;21.296;2024-01-30T09:03:24;179.30;2252.80
55008;DHT22;40902;45.116;21.296;2024-01-30T09:05:50;179.40;2252.80
55008;DHT22;40902;45.116;21.296;2024-01-30T09:08:16;179.50;2252.80
55008;DHT22;40902;45.116;21.296;2024-01-30T09:10:42;179.50;2252.80
55008;DHT22;40902;45.116;21.296;2024-01-30T09:13:08;179.50;2252.80
55008;DHT22;40902;45.116;21.296;2024-01-30T09:15:33;179.50;2252.80
55008;DHT22;40902;45.116;21.296;2024-01-30T09:17:59;179.50;2252.80
55008;DHT22;40902;45.116;21.296;2024-01-30T09:20:25;179.50;2252.80
55008;DHT22;40902;45.116;21.296;2024-01-30T09:22:50;179.50;2252.80
55008;DHT22;40902;45.116;21.296;2024-01-30T09:25:16;179.50;2252.80
55008;DHT22;40902;45.116;21.296;2024-01-30T09:27:44;179.60;2252.80
55008;DHT22;40902;45.116;21.296;2024-01-30T09:30:10;179.70;2252.80
55008;DHT22;40902;45.116;21.296;2024-01-30T09:32:35;179.70;2252.80
55008;DHT22;40902;45.116;21.296;2024-01-30T09:35:01;179.60;2252.80
55008;DHT22;40902;45.116;21.296;2024-01-30T09:37:27;179.60;2252.80
55008;DHT22;40902;45.116;21.296;2024-01-30T09:39:53;179.60;2252.80
55008;DHT22;40902;45.116;21.296;2024-01-30T09:42:34;179.70;2252.80
55008;DHT22;40902;45.116;21.296;2024-01-30T09:45:03;179.70;2252.80
55008;DHT22;40902;45.116;21.296;2024-01-30T09:47:45;179.70;2252.80
55008;DHT22;40902;45.116;21.296;2024-01-30T09:50:15;179.70;2252.80
55008;DHT22;40902;45.116;21.296;2024-01-30T09:52:45;179.70;2252.80
55008;DHT22;40902;45.116;21.296;2024-01-30T09:55:11;179.70;2252.80
55008;DHT22;40902;45.116;21.296;2024-01-30T09:57:37;179.70;2252.80
55008;DHT22;40902;45.116;21.296;2024-01-30T10:00:04;179.70;2252.80
55008;DHT22;40902;45.116;21.296;2024-01-30T10:02:33;179.70;2252.80
55008;DHT22;40902;45.116;21.296;2024-01-30T10:04:59;179.80;2252.80
55008;DHT22;40902;45.116;21.296;2024-01-30T10:07:25;179.90;2252.80
55008;DHT22;40902;45.116;21.296;2024-01-30T10:09:53;179.90;2252.80
55008;DHT22;40902;45.116;21.296;2024-01-30T10:12:19;179.90;2252.80
55008;DHT22;40902;45.116;21.296;2024-01-30T10:14:44;179.90;2252.80
55008;DHT22;40902;45.116;21.296;2024-01-30T10:17:11;179.90;2252.80
55008;DHT22;40902;45.116;21.296;2024-01-30T10:19:39;179.90;2252.80
55008;DHT22;40902;45.116;21.296;2024-01-30T10:22:05;180.00;2252.80
55008;DHT22;40902;45.116;21.296;2024-01-30T10:24:31;180.00;2252.80
55008;DHT22;40902;45.116;21.296;2024-01-30T10:26:57;180.00;2252.80
55008;DHT22;40902;45.116;21.296;2024-01-30T10:29:32;180.10;2252.80
55008;DHT22;40902;45.116;21.296;2024-01-30T10:32:02;204.80;2252.80
55008;DHT22;40902;45.116;21.296;2024-01-30T10:34:28;204.90;2252.80
55008;DHT22;40902;45.116;21.296;2024-01-30T10:37:10;204.90;2252.80
55008;DHT22;40902;45.116;21.296;2024-01-30T10:39:41;204.90;2252.80
55008;DHT22;40902;45.116;21.296;2024-01-30T10:42:13;205.00;2252.80
55008;DHT22;40902;45.116;21.296;2024-01-30T10:45:10;205.10;2252.80
55008;DHT22;40902;45.116;21.296;2024-01-30T10:47:59;205.20;2252.80
55008;DHT22;40902;45.116;21.296;2024-01-30T10:50:25;205.30;2252.80
55008;DHT22;40902;45.116;21.296;2024-01-30T10:52:52;205.40;2252.80
55008;DHT22;40902;45.116;21.296;2024-01-30T10:55:19;205.50;2252.80
55008;DHT22;40902;45.116;21.296;2024-01-30T10:57:45;205.70;2252.80
55008;DHT22;40902;45.116;21.296;2024-01-30T11:00:13;230.40;2252.80
55008;DHT22;40902;45.116;21.296;2024-01-30T11:02:43;230.50;2252.80
55008;DHT22;40902;45.116;21.296;2024-01-30T11:05:09;230.60;2252.80
55008;DHT22;40902;45.116;21.296;2024-01-30T11:07:35;230.60;2252.80
55008;DHT22;40902;45.116;21.296;2024-01-30T11:10:03;230.60;2252.80
55008;DHT22;40902;45.116;21.296;2024-01-30T11:12:33;230.70;2252.80
55008;DHT22;40902;45.116;21.296;2024-01-30T11:15:15;230.80;2252.80
55008;DHT22;40902;45.116;21.296;2024-01-30T11:17:51;230.90;2227.20
55008;DHT22;40902;45.116;21.296;2024-01-30T11:20:29;230.80;2201.60
55008;DHT22;40902;45.116;21.296;2024-01-30T11:22:57;230.80;2227.20
55008;DHT22;40902;45.116;21.296;2024-01-30T11:25:23;230.90;2227.20
55008;DHT22;40902;45.116;21.296;2024-01-30T11:27:52;230.90;2252.80
55008;DHT22;40902;45.116;21.296;2024-01-30T11:30:25;230.80;2227.20
55008;DHT22;40902;45.116;21.296;2024-01-30T11:33:05;230.90;2227.20
55008;DHT22;40902;45.116;21.296;2024-01-30T11:35:36;230.90;2227.20
55008;DHT22;40902;45.116;21.296;2024-01-30T11:38:03;230.80;2252.80
55008;DHT22;40902;45.116;21.296;2024-01-30T11:40:30;230.80;2201.60
55008;DHT22;40902;45.116;21.296;2024-01-30T11:42:58;230.80;2201.60
55008;DHT22;40902;45.116;21.296;2024-01-30T11:45:24;230.90;2201.60
55008;DHT22;40902;45.116;21.296;2024-01-30T11:47:50;230.80;2252.80
55008;DHT22;40902;45.116;21.296;2024-01-30T11:50:16;230.60;2227.20
55008;DHT22;40902;45.116;21.296;2024-01-30T11:52:42;230.50;2227.20
55008;DHT22;40902;45.116;21.296;2024-01-30T11:55:14;230.60;2252.80
55008;DHT22;40902;45.116;21.296;2024-01-30T11:57:39;230.70;2252.80
55008;DHT22;40902;45.116;21.296;2024-01-30T12:00:06;230.70;2227.20
55008;DHT22;40902;45.116;21.296;2024-01-30T12:02:39;230.70;2227.20
55008;DHT22;40902;45.116;21.296;2024-01-30T12:05:08;230.70;2252.80
55008;DHT22;40902;45.116;21.296;2024-01-30T12:07:35;230.70;2252.80
55008;DHT22;40902;45.116;21.296;2024-01-30T12:10:02;230.80;2227.20
55008;DHT22;40902;45.116;21.296;2024-01-30T12:12:29;230.80;2201.60
55008;DHT22;40902;45.116;21.296;2024-01-30T12:14:55;230.80;2201.60
55008;DHT22;40902;45.116;21.296;2024-01-30T12:17:30;230.80;2201.60
55008;DHT22;40902;45.116;21.296;2024-01-30T12:20:12;230.90;2201.60
55008;DHT22;40902;45.116;21.296;2024-01-30T12:22:40;230.90;2176.00
55008;DHT22;40902;45.116;21.296;2024-01-30T12:25:24;230.90;2150.40
55008;DHT22;40902;45.116;21.296;2024-01-30T12:27:50;230.90;2150.40
55008;DHT22;40902;45.116;21.296;2024-01-30T12:30:17;230.80;2150.40
55008;DHT22;40902;45.116;21.296;2024-01-30T12:32:48;230.90;2201.60
55008;DHT22;40902;45.116;21.296;2024-01-30T12:35:19;231.00;2176.00
55008;DHT22;40902;45.116;21.296;2024-01-30T12:37:46;231.00;2150.40
55008;DHT22;40902;45.116;21.296;2024-01-30T12:40:14;231.00;2201.60
55008;DHT22;40902;45.116;21.296;2024-01-30T12:42:45;231.10;2176.00
55008;DHT22;40902;45.116;21.296;2024-01-30T12:45:14;256.00;2176.00
55008;DHT22;40902;45.116;21.296;2024-01-30T12:47:41;256.00;2124.80
55008;DHT22;40902;45.116;21.296;2024-01-30T12:50:07;256.10;2124.80
55008;DHT22;40902;45.116;21.296;2024-01-30T12:52:33;256.30;2124.80
55008;DHT22;40902;45.116;21.296;2024-01-30T12:54:58;256.40;2099.20
55008;DHT22;40902;45.116;21.296;2024-01-30T12:57:24;256.60;2022.40
55008;DHT22;40902;45.116;21.296;2024-01-30T12:59:50;256.70;2022.40
55008;DHT22;40902;45.116;21.296;2024-01-30T13:02:16;256.80;2048.00
55008;DHT22;40902;45.116;21.296;2024-01-30T13:04:42;256.90;2073.60
55008;DHT22;40902;45.116;21.296;2024-01-30T13:07:08;256.80;2099.20
55008;DHT22;40902;45.116;21.296;2024-01-30T13:09:34;256.40;2124.80
55008;DHT22;40902;45.116;21.296;2024-01-30T13:12:00;256.10;2150.40
55008;DHT22;40902;45.116;21.296;2024-01-30T13:14:26;231.30;2150.40
55008;DHT22;40902;45.116;21.296;2024-01-30T13:16:52;231.30;2150.40
55008;DHT22;40902;45.116;21.296;2024-01-30T13:19:18;231.10;2176.00
55008;DHT22;40902;45.116;21.296;2024-01-30T13:21:44;231.00;2176.00
55008;DHT22;40902;45.116;21.296;2024-01-30T13:24:10;231.00;2176.00
55008;DHT22;40902;45.116;21.296;2024-01-30T13:26:36;231.00;2150.40
55008;DHT22;40902;45.116;21.296;2024-01-30T13:29:02;231.00;2176.00
55008;DHT22;40902;45.116;21.296;2024-01-30T13:31:29;231.10;2150.40
55008;DHT22;40902;45.116;21.296;2024-01-30T13:33:55;231.10;2150.40
55008;DHT22;40902;45.116;21.296;2024-01-30T13:36:21;230.90;2201.60
55008;DHT22;40902;45.116;21.296;2024-01-30T13:38:47;230.90;2201.60
55008;DHT22;40902;45.116;21.296;2024-01-30T13:41:12;230.70;2201.60
55008;DHT22;40902;45.116;21.296;2024-01-30T13:43:38;230.60;2201.60
55008;DHT22;40902;45.116;21.296;2024-01-30T13:46:04;230.70;2176.00
55008;DHT22;40902;45.116;21.296;2024-01-30T13:48:31;230.70;2150.40
55008;DHT22;40902;45.116;21.296;2024-01-30T13:50:57;230.60;2176.00
55008;DHT22;40902;45.116;21.296;2024-01-30T13:53:22;230.70;2176.00
55008;DHT22;40902;45.116;21.296;2024-01-30T13:55:48;230.90;2150.40
55008;DHT22;40902;45.116;21.296;2024-01-30T13:58:17;231.00;2124.80
55008;DHT22;40902;45.116;21.296;2024-01-30T14:00:42;231.30;2124.80
55008;DHT22;40902;45.116;21.296;2024-01-30T14:03:08;231.20;2099.20
55008;DHT22;40902;45.116;21.296;2024-01-30T14:05:34;256.00;2124.80
55008;DHT22;40902;45.116;21.296;2024-01-30T14:08:00;256.10;2124.80
55008;DHT22;40902;45.116;21.296;2024-01-30T14:10:26;256.20;2124.80
55008;DHT22;40902;45.116;21.296;2024-01-30T14:12:52;256.00;2124.80
55008;DHT22;40902;45.116;21.296;2024-01-30T14:15:18;231.30;2150.40
55008;DHT22;40902;45.116;21.296;2024-01-30T14:17:44;256.00;2124.80
55008;DHT22;40902;45.116;21.296;2024-01-30T14:20:12;256.20;2124.80
55008;DHT22;40902;45.116;21.296;2024-01-30T14:22:37;256.20;2124.80
55008;DHT22;40902;45.116;21.296;2024-01-30T14:25:04;256.20;2124.80
55008;DHT22;40902;45.116;21.296;2024-01-30T14:27:31;256.30;2124.80
55008;DHT22;40902;45.116;21.296;2024-01-30T14:29:57;256.10;2124.80
55008;DHT22;40902;45.116;21.296;2024-01-30T14:32:24;256.20;2099.20
55008;DHT22;40902;45.116;21.296;2024-01-30T14:34:53;256.10;2099.20
55008;DHT22;40902;45.116;21.296;2024-01-30T14:37:20;256.00;2099.20